createdAt,value
2017-08-28T00:04:56.236Z,95306.61
2017-08-28T00:07:23.948Z,95307.68
2017-08-28T00:09:51.521Z,95309.22
2017-08-28T00:12:19.293Z,95307.50
2017-08-28T00:14:46.867Z,95307.75
2017-08-28T00:17:14.635Z,95316.94
2017-08-28T00:19:47.240Z,95312.10
2017-08-28T00:22:14.807Z,95307.07
2017-08-28T00:24:43.556Z,95303.51
2017-08-28T00:27:11.103Z,95302.80
2017-08-28T00:29:38.671Z,95295.65
2017-08-28T00:32:06.514Z,95293.27
2017-08-28T00:34:34.021Z,95296.08
2017-08-28T00:37:04.730Z,95293.05
2017-08-28T00:39:33.031Z,95298.66
2017-08-28T00:42:00.580Z,95305.94
2017-08-28T00:44:28.328Z,95307.28
2017-08-28T00:46:55.964Z,95303.84
2017-08-28T00:49:23.476Z,95295.10
2017-08-28T00:51:51.244Z,95298.72
2017-08-28T00:54:18.820Z,95293.34
2017-08-28T00:56:46.585Z,95298.74
2017-08-28T00:59:14.109Z,95293.81
2017-08-28T01:01:41.913Z,95285.94
2017-08-28T01:04:09.422Z,95282.97
2017-08-28T01:06:39.669Z,95283.76
2017-08-28T01:09:07.284Z,95291.93
2017-08-28T01:11:35.035Z,95292.70
2017-08-28T01:14:02.566Z,95292.06
2017-08-28T01:16:30.131Z,95298.67
2017-08-28T01:18:57.676Z,95298.72
2017-08-28T01:21:25.198Z,95302.98
2017-08-28T01:23:52.791Z,95297.38
2017-08-28T01:26:20.326Z,95298.66
2017-08-28T01:28:48.059Z,95299.30
2017-08-28T01:31:16.179Z,95304.23
2017-08-28T01:33:43.719Z,95292.12
2017-08-28T01:36:11.329Z,95290.53
2017-08-28T01:38:38.907Z,95288.41
2017-08-28T01:41:06.429Z,95287.22
2017-08-28T01:43:33.939Z,95290.66
2017-08-28T01:46:01.725Z,95277.53
2017-08-28T01:48:29.246Z,95281.20
2017-08-28T01:50:56.767Z,95275.14
2017-08-28T01:53:24.345Z,95280.63
2017-08-28T01:55:51.863Z,95286.24
2017-08-28T01:58:19.447Z,95291.66
2017-08-28T02:00:47.009Z,95278.48
2017-08-28T02:03:14.955Z,95292.38
2017-08-28T02:05:42.724Z,95282.33
2017-08-28T02:08:10.283Z,95278.57
2017-08-28T02:10:38.062Z,95273.87
2017-08-28T02:13:05.570Z,95274.07
2017-08-28T02:15:33.426Z,95280.44
2017-08-28T02:18:00.940Z,95277.67
2017-08-28T02:20:28.475Z,95280.63
2017-08-28T02:22:56.247Z,95287.15
2017-08-28T02:25:23.864Z,95278.91
2017-08-28T02:27:51.718Z,95285.61
2017-08-28T02:30:20.478Z,95283.69
2017-08-28T02:32:48.039Z,95288.95
2017-08-28T02:35:15.563Z,95293.66
2017-08-28T02:37:43.338Z,95291.77
2017-08-28T02:40:11.110Z,95282.77
2017-08-28T02:42:38.625Z,95281.02
2017-08-28T02:45:06.171Z,95282.95
2017-08-28T02:47:34.317Z,95291.28
2017-08-28T02:50:01.868Z,95291.30
2017-08-28T02:52:29.461Z,95297.51
2017-08-28T02:54:56.966Z,95301.06
2017-08-28T02:57:24.523Z,95301.27
2017-08-28T02:59:52.085Z,95298.93
2017-08-28T03:02:19.915Z,95300.57
2017-08-28T03:04:47.501Z,95302.59
2017-08-28T03:07:15.024Z,95299.81
2017-08-28T03:09:42.603Z,95310.20
2017-08-28T03:12:10.145Z,95305.09
2017-08-28T03:14:37.693Z,95306.28
2017-08-28T03:17:05.303Z,95303.56
2017-08-28T03:19:32.896Z,95304.34
2017-08-28T03:22:00.460Z,95298.07
2017-08-28T03:24:28.010Z,95297.34
2017-08-28T03:26:55.557Z,95288.39
2017-08-28T03:29:23.088Z,95287.77
2017-08-28T03:31:50.635Z,95295.21
2017-08-28T03:34:18.533Z,95300.09
2017-08-28T03:36:46.073Z,95309.89
2017-08-28T03:39:13.665Z,95306.74
2017-08-28T03:41:42.940Z,95301.48
2017-08-28T03:44:10.593Z,95299.73
2017-08-28T03:46:38.195Z,95296.39
2017-08-28T03:49:05.824Z,95294.62
2017-08-28T03:51:33.580Z,95295.38
2017-08-28T03:54:01.214Z,95299.26
2017-08-28T03:56:28.729Z,95304.99
2017-08-28T03:58:56.598Z,95309.25
2017-08-28T04:01:24.184Z,95312.63
2017-08-28T04:03:51.727Z,95306.17
2017-08-28T04:06:19.253Z,95308.75
2017-08-28T04:08:46.796Z,95309.70
2017-08-28T04:11:14.315Z,95305.77
2017-08-28T04:13:41.825Z,95314.80
2017-08-28T04:16:09.407Z,95315.22
2017-08-28T04:18:36.936Z,95325.78
2017-08-28T04:21:04.474Z,95321.27
2017-08-28T04:23:32.262Z,95313.82
2017-08-28T04:26:00.488Z,95313.63
2017-08-28T04:28:28.741Z,95305.34
2017-08-28T04:30:56.439Z,95314.15
2017-08-28T04:33:24.026Z,95318.24
2017-08-28T04:35:51.633Z,95324.67
2017-08-28T04:38:19.213Z,95332.31
2017-08-28T04:40:47.321Z,95335.45
2017-08-28T04:43:14.921Z,95321.69
2017-08-28T04:45:42.553Z,95312.43
2017-08-28T04:48:10.814Z,95308.55
2017-08-28T04:50:38.453Z,95307.00
2017-08-28T04:53:06.023Z,95291.84
2017-08-28T04:55:34.186Z,95303.41
2017-08-28T04:58:01.711Z,95307.80
2017-08-28T05:00:31.577Z,95308.22
2017-08-28T05:02:59.133Z,95309.91
2017-08-28T05:05:26.955Z,95306.45
2017-08-28T05:07:54.533Z,95307.28
2017-08-28T05:10:31.396Z,95301.77
2017-08-28T05:12:59.037Z,95310.05
2017-08-28T05:15:26.593Z,95318.56
2017-08-28T05:17:54.184Z,95309.66
2017-08-28T05:20:21.749Z,95303.01
2017-08-28T05:22:49.313Z,95303.34
2017-08-28T05:25:16.852Z,95311.86
2017-08-28T05:27:44.430Z,95312.97
2017-08-28T05:30:12.174Z,95313.83
2017-08-28T05:32:39.812Z,95321.52
2017-08-28T05:35:07.333Z,95318.60
2017-08-28T05:37:35.038Z,95326.28
2017-08-28T05:40:02.877Z,95328.00
2017-08-28T05:42:30.423Z,95328.41
2017-08-28T05:44:58.976Z,95330.73
2017-08-28T05:47:26.773Z,95333.12
2017-08-28T05:49:54.319Z,95347.63
2017-08-28T05:52:25.532Z,95353.81
2017-08-28T05:55:01.361Z,95349.88
2017-08-28T05:57:36.213Z,95345.73
2017-08-28T06:00:07.257Z,95344.86
2017-08-28T06:02:35.030Z,95356.12
2017-08-28T06:05:02.607Z,95345.66
2017-08-28T06:07:31.338Z,95351.28
2017-08-28T06:10:01.332Z,95350.23
2017-08-28T06:12:46.038Z,95355.01
2017-08-28T06:15:13.689Z,95360.29
2017-08-28T06:17:41.244Z,95361.11
2017-08-28T06:20:08.822Z,95344.61
2017-08-28T06:22:36.354Z,95340.84
2017-08-28T06:25:03.851Z,95341.84
2017-08-28T06:27:33.261Z,95334.87
2017-08-28T06:30:00.815Z,95341.20
2017-08-28T06:32:28.421Z,95338.20
2017-08-28T06:34:55.980Z,95337.06
2017-08-28T06:37:23.524Z,95334.70
2017-08-28T06:39:51.075Z,95337.20
2017-08-28T06:42:18.923Z,95346.91
2017-08-28T06:44:46.499Z,95354.70
2017-08-28T06:47:15.300Z,95351.37
2017-08-28T06:49:42.891Z,95350.88
2017-08-28T06:52:10.428Z,95353.28
2017-08-28T06:54:38.010Z,95349.05
2017-08-28T06:57:05.553Z,95354.94
2017-08-28T06:59:33.097Z,95347.42
2017-08-28T07:02:00.691Z,95349.69
2017-08-28T07:04:28.460Z,95348.14
2017-08-28T07:06:56.092Z,95348.11
2017-08-28T07:09:23.696Z,95356.42
2017-08-28T07:11:51.255Z,95351.84
2017-08-28T07:14:18.794Z,95350.48
2017-08-28T07:16:46.381Z,95345.06
2017-08-28T07:19:13.919Z,95346.20
2017-08-28T07:21:41.680Z,95348.26
2017-08-28T07:24:09.271Z,95348.82
2017-08-28T07:26:36.790Z,95350.13
2017-08-28T07:29:04.588Z,95344.60
2017-08-28T07:31:33.036Z,95348.72
2017-08-28T07:34:04.143Z,95348.66
2017-08-28T07:36:31.727Z,95354.55
2017-08-28T07:38:59.352Z,95353.03
2017-08-28T07:41:26.918Z,95349.72
2017-08-28T07:43:54.463Z,95354.00
2017-08-28T07:46:22.040Z,95350.52
2017-08-28T07:48:53.488Z,95350.09
2017-08-28T07:54:26.272Z,95362.25
2017-08-28T08:00:00.285Z,95362.48
2017-08-28T08:02:31.741Z,95354.38
2017-08-28T08:05:00.045Z,95345.31
2017-08-28T08:07:41.463Z,95342.20
2017-08-28T08:17:04.844Z,95331.16
2017-08-28T08:19:32.698Z,95328.28
2017-08-28T08:22:03.800Z,95320.47
2017-08-28T08:30:40.840Z,95319.55
2017-08-28T08:37:12.204Z,95308.10
2017-08-28T08:39:39.871Z,95304.81
2017-08-28T08:42:07.586Z,95301.70
2017-08-28T08:44:36.037Z,95297.34
2017-08-28T08:47:03.625Z,95289.20
2017-08-28T08:49:32.085Z,95291.89
2017-08-28T08:51:59.753Z,95297.36
2017-08-28T08:54:27.493Z,95291.84
2017-08-28T08:56:56.297Z,95286.59
2017-08-28T08:59:24.500Z,95275.03
2017-08-28T09:01:52.135Z,95276.08
2017-08-28T09:04:20.702Z,95272.91
2017-08-28T09:06:48.380Z,95268.48
2017-08-28T09:09:17.541Z,95270.90
2017-08-28T09:11:45.157Z,95272.05
2017-08-28T09:14:13.810Z,95266.64
2017-08-28T09:16:42.216Z,95271.29
2017-08-28T09:19:09.884Z,95266.94
2017-08-28T09:21:38.413Z,95268.13
2017-08-28T09:24:06.112Z,95264.61
2017-08-28T09:26:34.638Z,95268.19
2017-08-28T09:29:23.488Z,95259.50
2017-08-28T09:32:15.223Z,95252.14
2017-08-28T09:37:29.672Z,95249.09
2017-08-28T09:43:30.008Z,95242.19
2017-08-28T09:45:57.789Z,95237.76
2017-08-28T09:48:28.824Z,95236.61
2017-08-28T09:50:56.432Z,95241.70
2017-08-28T09:53:30.028Z,95234.75
2017-08-28T09:56:03.810Z,95231.59
2017-08-28T09:58:35.425Z,95230.80
2017-08-28T10:01:03.406Z,95224.92
2017-08-28T10:03:31.203Z,95222.78
2017-08-28T10:05:58.882Z,95208.36
2017-08-28T10:08:26.521Z,95211.98
2017-08-28T10:10:54.164Z,95207.70
2017-08-28T10:13:21.710Z,95208.30
2017-08-28T10:15:50.180Z,95209.27
2017-08-28T10:18:18.864Z,95201.38
2017-08-28T10:20:46.679Z,95204.58
2017-08-28T10:23:14.481Z,95194.62
2017-08-28T10:25:42.267Z,95192.30
2017-08-28T10:28:09.785Z,95187.38
2017-08-28T10:30:37.340Z,95187.50
2017-08-28T10:33:05.553Z,95186.20
2017-08-28T10:35:33.397Z,95185.06
2017-08-28T10:38:01.001Z,95183.78
2017-08-28T10:40:29.449Z,95174.30
2017-08-28T10:42:57.611Z,95173.36
2017-08-28T10:45:25.160Z,95174.32
2017-08-28T10:48:05.457Z,95171.72
2017-08-28T10:50:35.718Z,95161.55
2017-08-28T10:53:09.004Z,95171.80
2017-08-28T10:55:38.268Z,95161.67
2017-08-28T10:58:05.916Z,95159.78
2017-08-28T11:00:33.664Z,95160.30
2017-08-28T11:03:01.311Z,95149.47
2017-08-28T11:05:28.892Z,95143.42
2017-08-28T11:07:56.503Z,95133.78
2017-08-28T11:10:24.076Z,95143.03
2017-08-28T11:12:52.111Z,95141.75
2017-08-28T11:15:19.702Z,95142.93
2017-08-28T11:17:47.910Z,95141.14
2017-08-28T11:20:15.646Z,95136.98
2017-08-28T11:22:43.228Z,95126.73
2017-08-28T11:25:18.735Z,95133.34
2017-08-28T11:27:46.318Z,95133.77
2017-08-28T11:30:15.057Z,95132.38
2017-08-28T11:32:44.034Z,95131.31
2017-08-28T11:35:13.470Z,95130.52
2017-08-28T11:37:41.300Z,95127.29
2017-08-28T11:40:09.657Z,95116.47
2017-08-28T11:42:37.497Z,95117.22
2017-08-28T11:45:05.818Z,95120.05
2017-08-28T11:47:35.300Z,95111.19
2017-08-28T11:50:03.095Z,95107.52
2017-08-28T11:52:30.648Z,95111.75
2017-08-28T11:54:58.199Z,95106.31
2017-08-28T11:57:25.929Z,95098.50
2017-08-28T11:59:53.749Z,95094.84
2017-08-28T12:02:21.293Z,95095.54
2017-08-28T12:04:49.722Z,95089.78
2017-08-28T12:07:18.153Z,95086.86
2017-08-28T12:09:45.707Z,95069.00
2017-08-28T12:12:13.459Z,95069.00
2017-08-28T12:14:42.650Z,95065.49
2017-08-28T12:17:10.415Z,95065.84
2017-08-28T12:19:38.683Z,95067.17
2017-08-28T12:22:06.203Z,95062.61
2017-08-28T12:24:35.220Z,95060.09
2017-08-28T12:27:03.034Z,95054.56
2017-08-28T12:29:31.496Z,95045.27
2017-08-28T12:31:59.877Z,95049.33
2017-08-28T12:34:27.519Z,95050.98
2017-08-28T12:36:55.913Z,95052.45
2017-08-28T12:39:23.500Z,95059.45
2017-08-28T12:41:51.031Z,95064.58
2017-08-28T12:44:18.556Z,95067.53
2017-08-28T12:46:46.142Z,95073.06
2017-08-28T12:49:18.179Z,95076.39
2017-08-28T12:51:47.338Z,95081.86
2017-08-28T12:54:16.303Z,95083.40
2017-08-28T12:56:43.903Z,95083.64
2017-08-28T12:59:16.561Z,95086.53
2017-08-28T13:01:44.319Z,95083.06
2017-08-28T13:04:12.149Z,95092.66
2017-08-28T13:06:40.019Z,95097.73
2017-08-28T13:09:08.543Z,95109.13
2017-08-28T13:11:37.721Z,95105.31
2017-08-28T13:14:05.988Z,95106.59
2017-08-28T13:16:34.116Z,95115.37
2017-08-28T13:19:03.544Z,95118.13
2017-08-28T13:21:31.198Z,95112.25
2017-08-28T13:23:59.901Z,95118.08
2017-08-28T13:26:29.275Z,95115.98
2017-08-28T13:28:58.175Z,95116.08
2017-08-28T13:31:25.941Z,95143.55
2017-08-28T13:33:53.533Z,95157.56
2017-08-28T13:36:21.856Z,95163.91
2017-08-28T13:38:50.589Z,95160.69
2017-08-28T13:41:19.407Z,95169.86
2017-08-28T13:43:47.009Z,95169.16
2017-08-28T13:46:15.521Z,95164.58
2017-08-28T13:48:43.674Z,95161.84
2017-08-28T13:51:12.359Z,95157.59
2017-08-28T13:53:39.925Z,95166.34
2017-08-28T13:56:08.211Z,95148.89
2017-08-28T13:58:36.621Z,95159.11
2017-08-28T14:01:04.452Z,95154.04
2017-08-28T14:03:32.648Z,95148.51
2017-08-28T14:06:00.466Z,95156.88
2017-08-28T14:08:28.711Z,95154.86
2017-08-28T14:10:57.429Z,95150.37
2017-08-28T14:13:25.203Z,95164.43
2017-08-28T14:15:53.341Z,95156.45
2017-08-28T14:18:21.698Z,95157.36
2017-08-28T14:21:15.968Z,95161.90
2017-08-28T14:23:44.271Z,95164.96
2017-08-28T14:26:13.008Z,95162.34
2017-08-28T14:28:40.624Z,95166.13
2017-08-28T14:31:08.733Z,95156.60
2017-08-28T14:33:36.333Z,95157.86
2017-08-28T14:36:03.870Z,95154.36
2017-08-28T14:38:33.503Z,95158.11
2017-08-28T14:41:01.120Z,95158.98
2017-08-28T14:43:29.933Z,95158.64
2017-08-28T14:45:57.510Z,95161.28
2017-08-28T14:48:25.543Z,95159.08
2017-08-28T14:50:53.225Z,95152.29
2017-08-28T14:53:23.674Z,95165.84
2017-08-28T14:55:53.612Z,95165.02
2017-08-28T14:58:21.918Z,95159.66
2017-08-28T15:00:50.546Z,95157.28
2017-08-28T15:03:19.855Z,95150.49
2017-08-28T15:05:52.518Z,95159.64
2017-08-28T15:15:03.870Z,95148.58
2017-08-28T15:17:31.408Z,95148.17
2017-08-28T15:19:59.010Z,95143.35
2017-08-28T15:22:26.616Z,95166.21
2017-08-28T15:24:54.168Z,95145.08
2017-08-28T15:27:21.728Z,95150.02
2017-08-28T15:29:49.307Z,95146.77
2017-08-28T15:32:16.894Z,95143.28
2017-08-28T15:34:44.516Z,95146.11
2017-08-28T15:37:12.095Z,95147.64
2017-08-28T15:39:39.680Z,95145.52
2017-08-28T15:42:07.236Z,95140.04
2017-08-28T15:44:34.764Z,95142.75
2017-08-28T15:47:02.420Z,95146.73
2017-08-28T15:49:30.129Z,95151.27
2017-08-28T15:52:01.876Z,95150.42
2017-08-28T15:54:30.113Z,95143.02
2017-08-28T15:56:57.656Z,95145.95
2017-08-28T15:59:25.268Z,95147.17
2017-08-28T16:01:53.667Z,95149.45
2017-08-28T16:04:21.231Z,95140.81
2017-08-28T16:06:48.942Z,95153.31
2017-08-28T16:09:16.659Z,95145.02
2017-08-28T16:11:44.237Z,95155.04
2017-08-28T16:14:11.811Z,95151.00
2017-08-28T16:16:39.605Z,95152.30
2017-08-28T16:19:07.144Z,95145.50
2017-08-28T16:21:34.709Z,95137.80
2017-08-28T16:24:03.349Z,95138.61
2017-08-28T16:26:30.906Z,95140.43
2017-08-28T16:28:58.511Z,95136.65
2017-08-28T16:31:26.188Z,95146.03
2017-08-28T16:33:53.777Z,95139.57
2017-08-28T16:36:21.368Z,95131.75
2017-08-28T16:38:48.956Z,95130.55
2017-08-28T16:41:16.572Z,95130.91
2017-08-28T16:43:44.134Z,95134.25
2017-08-28T16:46:11.709Z,95136.03
2017-08-28T16:48:39.295Z,95136.32
2017-08-28T16:51:06.878Z,95130.33
2017-08-28T16:53:34.495Z,95133.02
2017-08-28T16:56:14.420Z,95139.67
2017-08-28T16:58:47.854Z,95145.64
2017-08-28T17:01:27.277Z,95137.61
2017-08-28T17:04:00.219Z,95146.06
2017-08-28T17:09:22.686Z,95154.70
2017-08-28T17:11:50.297Z,95162.94
2017-08-28T17:14:18.351Z,95168.02
2017-08-28T17:16:46.129Z,95169.15
2017-08-28T17:19:13.721Z,95167.84
2017-08-28T17:21:41.257Z,95167.66
2017-08-28T17:24:08.804Z,95177.46
2017-08-28T17:26:36.388Z,95183.07
2017-08-28T17:29:03.993Z,95185.13
2017-08-28T17:31:31.773Z,95181.30
2017-08-28T17:33:59.314Z,95182.52
2017-08-28T17:36:27.057Z,95190.96
2017-08-28T17:38:58.771Z,95187.50
2017-08-28T17:41:26.352Z,95188.38
2017-08-28T17:43:53.945Z,95195.33
2017-08-28T17:46:21.532Z,95203.40
2017-08-28T17:48:49.147Z,95199.70
2017-08-28T17:51:16.721Z,95209.92
2017-08-28T17:53:44.311Z,95214.49
2017-08-28T17:56:11.858Z,95217.27
2017-08-28T17:58:39.410Z,95215.07
2017-08-28T18:01:07.185Z,95217.44
2017-08-28T18:03:34.743Z,95219.09
2017-08-28T18:06:02.310Z,95213.47
2017-08-28T18:08:29.929Z,95223.80
2017-08-28T18:10:57.473Z,95223.36
2017-08-28T18:13:25.043Z,95225.36
2017-08-28T18:15:53.227Z,95224.70
2017-08-28T18:18:21.550Z,95228.63
2017-08-28T18:20:49.135Z,95233.39
2017-08-28T18:23:16.753Z,95236.04
2017-08-28T18:25:44.391Z,95234.02
2017-08-28T18:28:12.136Z,95238.62
2017-08-28T18:30:39.761Z,95233.38
2017-08-28T18:33:07.338Z,95242.36
2017-08-28T18:35:34.879Z,95253.45
2017-08-28T18:38:02.461Z,95255.23
2017-08-28T18:40:30.087Z,95243.89
2017-08-28T18:42:57.664Z,95244.13
2017-08-28T18:45:25.279Z,95244.77
2017-08-28T18:47:53.190Z,95244.31
2017-08-28T18:50:20.733Z,95245.86
2017-08-28T18:52:48.299Z,95239.55
2017-08-28T18:55:15.834Z,95246.31
2017-08-28T18:57:43.399Z,95245.13
2017-08-28T19:00:12.904Z,95240.00
2017-08-28T19:02:40.515Z,95248.03
2017-08-28T19:05:08.548Z,95252.37
2017-08-28T19:07:36.206Z,95255.13
2017-08-28T19:10:04.043Z,95254.83
2017-08-28T19:12:31.841Z,95252.17
2017-08-28T19:14:59.871Z,95257.80
2017-08-28T19:17:28.438Z,95257.23
2017-08-28T19:19:56.534Z,95255.27
2017-08-28T19:22:24.139Z,95259.06
2017-08-28T19:24:51.747Z,95260.25
2017-08-28T19:27:19.326Z,95263.81
2017-08-28T19:29:46.953Z,95265.28
2017-08-28T19:39:52.851Z,95265.91
2017-08-28T19:46:20.454Z,95271.00
2017-08-28T19:48:48.096Z,95267.16
2017-08-28T19:51:15.706Z,95268.04
2017-08-28T19:53:43.350Z,95268.79
2017-08-28T19:56:11.003Z,95271.34
2017-08-28T19:58:38.769Z,95269.91
2017-08-28T20:01:06.694Z,95268.88
2017-08-28T20:03:34.364Z,95274.81
2017-08-28T20:06:16.376Z,95280.65
2017-08-28T20:08:44.920Z,95276.55
2017-08-28T20:11:14.371Z,95277.20
2017-08-28T20:13:42.885Z,95285.22
2017-08-28T20:16:10.628Z,95285.37
2017-08-28T20:18:53.112Z,95287.61
2017-08-28T20:21:20.716Z,95280.84
2017-08-28T20:23:52.114Z,95287.48
2017-08-28T20:26:19.862Z,95288.79
2017-08-28T20:28:47.472Z,95283.09
2017-08-28T20:31:15.181Z,95285.67
2017-08-28T20:33:42.783Z,95291.73
2017-08-28T20:36:19.433Z,95300.55
2017-08-28T20:38:50.550Z,95296.10
2017-08-28T20:41:19.539Z,95300.09
2017-08-28T20:43:51.447Z,95294.81
2017-08-28T20:46:19.096Z,95292.63
2017-08-28T20:49:03.315Z,95311.33
2017-08-28T20:54:52.873Z,95302.70
2017-08-28T20:57:20.725Z,95307.48
2017-08-28T20:59:48.707Z,95303.77
2017-08-28T21:02:16.314Z,95299.82
2017-08-28T21:04:43.899Z,95304.90
2017-08-28T21:07:16.833Z,95294.50
2017-08-28T21:09:48.699Z,95285.96
2017-08-28T21:12:21.836Z,95293.14
2017-08-28T21:14:51.373Z,95295.69
2017-08-28T21:17:18.949Z,95290.30
2017-08-28T21:19:46.677Z,95298.86
2017-08-28T21:22:14.311Z,95299.61
2017-08-28T21:24:42.443Z,95300.64
2017-08-28T21:28:53.915Z,95306.03
2017-08-28T21:31:21.828Z,95300.08
2017-08-28T21:33:49.369Z,95302.16
2017-08-28T21:36:16.914Z,95293.25
2017-08-28T21:38:44.465Z,95310.19
2017-08-28T21:41:12.014Z,95301.23
2017-08-28T21:43:39.608Z,95302.27
2017-08-28T21:46:07.215Z,95305.54
2017-08-28T21:48:34.838Z,95301.09
2017-08-28T21:51:02.577Z,95297.27
2017-08-28T21:53:30.175Z,95292.15
2017-08-28T21:55:57.716Z,95285.50
2017-08-28T21:58:25.268Z,95283.93
2017-08-28T22:00:52.877Z,95282.71
2017-08-28T22:03:20.420Z,95291.80
2017-08-28T22:05:48.013Z,95282.35
2017-08-28T22:08:15.595Z,95280.50
2017-08-28T22:10:43.129Z,95276.33
2017-08-28T22:13:10.663Z,95278.49
2017-08-28T22:15:38.251Z,95277.27
2017-08-28T22:18:05.807Z,95279.48
2017-08-28T22:20:33.702Z,95282.55
2017-08-28T22:23:01.626Z,95253.17
2017-08-28T22:25:29.193Z,95276.13
2017-08-28T22:27:56.752Z,95269.08
2017-08-28T22:30:24.344Z,95269.63
2017-08-28T22:32:51.879Z,95268.21
2017-08-28T22:35:19.495Z,95265.14
2017-08-28T22:37:47.157Z,95258.38
2017-08-28T22:40:14.764Z,95261.64
2017-08-28T22:42:42.352Z,95254.56
2017-08-28T22:45:09.934Z,95250.70
2017-08-28T22:47:37.521Z,95258.70
2017-08-28T22:50:05.071Z,95252.63
2017-08-28T22:52:32.651Z,95250.21
2017-08-28T22:55:00.202Z,95246.28
2017-08-28T22:57:27.735Z,95246.41
2017-08-28T22:59:55.345Z,95243.17
2017-08-28T23:02:22.930Z,95239.64
2017-08-28T23:04:51.149Z,95243.50
2017-08-28T23:07:19.420Z,95246.13
2017-08-28T23:09:47.040Z,95256.16
2017-08-28T23:12:14.885Z,95260.89
2017-08-28T23:14:42.536Z,95264.45
2017-08-28T23:17:10.131Z,95258.45
2017-08-28T23:19:37.648Z,95258.33
2017-08-28T23:22:05.183Z,95256.80
2017-08-28T23:24:32.804Z,95247.89
2017-08-28T23:27:00.339Z,95243.25
2017-08-28T23:29:27.889Z,95241.02
2017-08-28T23:31:55.465Z,95239.67
2017-08-28T23:34:23.032Z,95237.66
2017-08-28T23:36:50.566Z,95236.76
2017-08-28T23:39:18.166Z,95239.27
2017-08-28T23:41:45.729Z,95245.37
2017-08-28T23:44:13.325Z,95244.82
2017-08-28T23:46:40.885Z,95251.40
2017-08-28T23:49:08.451Z,95242.34
2017-08-28T23:51:36.003Z,95232.19
2017-08-28T23:54:03.620Z,95226.44
2017-08-28T23:56:31.190Z,95228.92
2017-08-28T23:58:58.759Z,95231.94
